createdAt,value
2023-04-09T00:00:51.298Z,0.00
2023-04-09T00:01:51.296Z,0.00
2023-04-09T00:02:51.315Z,0.00
2023-04-09T00:03:51.372Z,0.00
2023-04-09T00:04:51.296Z,0.00
2023-04-09T00:05:51.232Z,0.00
2023-04-09T00:06:51.339Z,0.00
2023-04-09T00:07:51.225Z,0.00
2023-04-09T00:08:51.457Z,0.00
2023-04-09T00:09:51.197Z,0.00
2023-04-09T00:10:51.183Z,0.00
2023-04-09T00:11:51.190Z,0.00
2023-04-09T00:12:51.152Z,0.00
2023-04-09T00:13:51.138Z,0.00
2023-04-09T00:14:51.157Z,0.00
2023-04-09T00:15:51.156Z,0.00
2023-04-09T00:16:51.106Z,0.00
2023-04-09T00:17:51.146Z,0.00
2023-04-09T00:18:51.338Z,0.00
2023-04-09T00:19:51.098Z,0.00
2023-04-09T00:20:51.059Z,0.00
2023-04-09T00:21:51.048Z,0.00
2023-04-09T00:22:51.046Z,0.00
2023-04-09T00:23:51.036Z,0.00
2023-04-09T00:24:51.062Z,0.00
2023-04-09T00:25:51.000Z,0.00
2023-04-09T00:26:51.001Z,0.00
2023-04-09T00:27:50.978Z,0.00
2023-04-09T00:28:51.177Z,0.00
2023-04-09T00:29:50.988Z,0.00
2023-04-09T00:30:50.957Z,0.00
2023-04-09T00:31:51.011Z,0.00
2023-04-09T00:32:51.000Z,0.00
2023-04-09T00:33:50.911Z,0.00
2023-04-09T00:34:50.923Z,0.00
2023-04-09T00:35:50.913Z,0.00
2023-04-09T00:36:50.887Z,0.00
2023-04-09T00:37:50.879Z,0.00
2023-04-09T00:38:51.136Z,0.00
2023-04-09T00:39:50.846Z,0.00
2023-04-09T00:40:50.881Z,0.00
2023-04-09T00:41:50.822Z,0.00
2023-04-09T00:42:50.811Z,0.00
2023-04-09T00:43:50.801Z,0.00
2023-04-09T00:44:50.838Z,0.00
2023-04-09T00:45:50.809Z,0.00
2023-04-09T00:46:50.768Z,0.00
2023-04-09T00:47:50.803Z,0.00
2023-04-09T00:48:51.034Z,0.00
2023-04-09T00:49:50.769Z,0.00
2023-04-09T00:50:50.738Z,0.00
2023-04-09T00:51:50.708Z,0.00
2023-04-09T00:52:50.698Z,0.00
2023-04-09T00:53:50.687Z,0.00
2023-04-09T00:54:50.678Z,0.00
2023-04-09T00:55:51.320Z,0.00
2023-04-09T00:56:50.681Z,0.00
2023-04-09T00:57:50.641Z,0.00
2023-04-09T00:58:50.927Z,0.00
2023-04-09T00:59:50.626Z,0.00
2023-04-09T01:00:50.695Z,0.00
2023-04-09T01:01:50.630Z,0.00
2023-04-09T01:02:50.759Z,0.00
2023-04-09T01:03:50.642Z,0.00
2023-04-09T01:04:50.564Z,0.00
2023-04-09T01:05:50.575Z,0.00
2023-04-09T01:06:50.544Z,0.00
2023-04-09T01:07:50.563Z,0.00
2023-04-09T01:08:50.959Z,0.00
2023-04-09T01:09:50.529Z,0.00
2023-04-09T01:10:50.497Z,0.00
2023-04-09T01:11:50.495Z,0.00
2023-04-09T01:12:50.496Z,0.00
2023-04-09T01:13:50.481Z,0.00
2023-04-09T01:14:50.449Z,0.00
2023-04-09T01:15:50.436Z,0.00
2023-04-09T01:16:50.468Z,0.00
2023-04-09T01:17:50.457Z,0.00
2023-04-09T01:18:50.594Z,0.00
2023-04-09T01:19:50.404Z,0.00
2023-04-09T01:20:50.400Z,0.00
2023-04-09T01:21:50.391Z,0.00
2023-04-09T01:22:50.360Z,0.00
2023-04-09T01:23:50.344Z,0.00
2023-04-09T01:24:50.348Z,0.00
2023-04-09T01:25:50.350Z,0.00
2023-04-09T01:26:50.313Z,0.00
2023-04-09T01:27:50.301Z,0.00
2023-04-09T01:28:50.699Z,0.00
2023-04-09T01:29:50.301Z,0.00
2023-04-09T01:30:50.307Z,0.00
2023-04-09T01:31:50.272Z,0.00
2023-04-09T01:32:50.292Z,0.00
2023-04-09T01:33:50.235Z,0.00
2023-04-09T01:34:50.251Z,0.00
2023-04-09T01:35:50.233Z,0.00
2023-04-09T01:36:50.202Z,0.00
2023-04-09T01:37:50.197Z,0.00
2023-04-09T01:38:50.430Z,0.00
2023-04-09T01:39:50.167Z,0.00
2023-04-09T01:40:50.171Z,0.00
2023-04-09T01:41:50.147Z,0.00
2023-04-09T01:42:50.155Z,0.00
2023-04-09T01:43:50.125Z,0.00
2023-04-09T01:44:50.125Z,0.00
2023-04-09T01:45:50.125Z,0.00
2023-04-09T01:46:50.108Z,0.00
2023-04-09T01:47:50.153Z,0.00
2023-04-09T01:48:50.244Z,0.00
2023-04-09T01:49:50.061Z,0.00
2023-04-09T01:50:50.048Z,0.00
2023-04-09T01:51:50.056Z,0.00
2023-04-09T01:52:50.027Z,0.00
2023-04-09T01:53:50.014Z,0.00
2023-04-09T01:54:49.996Z,0.00
2023-04-09T01:55:49.990Z,0.00
2023-04-09T01:56:49.993Z,0.00
2023-04-09T01:57:49.973Z,0.00
2023-04-09T01:58:51.061Z,0.00
2023-04-09T01:59:49.969Z,0.00
2023-04-09T02:00:49.973Z,0.00
2023-04-09T02:01:50.252Z,0.00
2023-04-09T02:02:50.044Z,0.00
2023-04-09T02:03:49.964Z,0.00
2023-04-09T02:04:49.909Z,0.00
2023-04-09T02:05:49.900Z,0.00
2023-04-09T02:06:49.881Z,0.00
2023-04-09T02:07:49.867Z,0.00
2023-04-09T02:08:50.063Z,0.00
2023-04-09T02:09:49.838Z,0.00
2023-04-09T02:10:49.835Z,0.00
2023-04-09T02:11:49.878Z,0.00
2023-04-09T02:12:49.810Z,0.00
2023-04-09T02:13:49.787Z,0.00
2023-04-09T02:14:49.783Z,0.00
2023-04-09T02:15:49.791Z,0.00
2023-04-09T02:16:49.792Z,0.00
2023-04-09T02:17:49.863Z,0.00
2023-04-09T02:18:49.828Z,0.00
2023-04-09T02:19:49.745Z,0.00
2023-04-09T02:20:49.707Z,0.00
2023-04-09T02:21:49.721Z,0.00
2023-04-09T02:22:49.702Z,0.00
2023-04-09T02:23:49.678Z,0.00
2023-04-09T02:24:49.659Z,0.00
2023-04-09T02:25:49.650Z,0.00
2023-04-09T02:26:49.662Z,0.00
2023-04-09T02:27:49.654Z,0.00
2023-04-09T02:28:49.821Z,0.00
2023-04-09T02:29:49.633Z,0.00
2023-04-09T02:30:49.598Z,0.00
2023-04-09T02:31:49.608Z,0.00
2023-04-09T02:32:49.654Z,0.00
2023-04-09T02:33:49.561Z,0.00
2023-04-09T02:34:49.552Z,0.00
2023-04-09T02:35:49.567Z,0.00
2023-04-09T02:36:49.547Z,0.00
2023-04-09T02:37:49.526Z,0.00
2023-04-09T02:38:49.557Z,0.00
2023-04-09T02:39:49.495Z,0.00
2023-04-09T02:40:49.482Z,0.00
2023-04-09T02:41:49.476Z,0.00
2023-04-09T02:42:49.489Z,0.00
2023-04-09T02:43:49.477Z,0.00
2023-04-09T02:44:49.451Z,0.00
2023-04-09T02:45:49.429Z,0.00
2023-04-09T02:46:49.647Z,0.00
2023-04-09T02:47:49.423Z,0.00
2023-04-09T02:48:49.624Z,0.00
2023-04-09T02:49:49.418Z,0.00
2023-04-09T02:50:49.374Z,0.00
2023-04-09T02:51:49.369Z,0.00
2023-04-09T02:52:49.353Z,0.00
2023-04-09T02:53:49.361Z,0.00
2023-04-09T02:54:49.328Z,0.00
2023-04-09T02:55:49.318Z,0.00
2023-04-09T02:56:49.324Z,0.00
2023-04-09T02:57:49.297Z,0.00
2023-04-09T02:58:49.329Z,0.00
2023-04-09T02:59:49.282Z,0.00
2023-04-09T03:00:49.258Z,0.00
2023-04-09T03:01:49.402Z,0.00
2023-04-09T03:02:49.376Z,0.00
2023-04-09T03:03:49.332Z,0.00
2023-04-09T03:04:49.234Z,0.00
2023-04-09T03:05:49.208Z,0.00
2023-04-09T03:06:49.194Z,0.00
2023-04-09T03:07:49.181Z,0.00
2023-04-09T03:08:49.376Z,0.00
2023-04-09T03:09:49.157Z,0.00
2023-04-09T03:10:49.156Z,0.00
2023-04-09T03:11:49.136Z,0.00
2023-04-09T03:12:49.149Z,0.00
2023-04-09T03:13:49.120Z,0.00
2023-04-09T03:14:49.117Z,0.00
2023-04-09T03:15:49.109Z,0.00
2023-04-09T03:16:49.090Z,0.00
2023-04-09T03:17:49.121Z,0.00
2023-04-09T03:18:49.104Z,0.00
2023-04-09T03:19:49.070Z,0.00
2023-04-09T03:20:49.056Z,0.00
2023-04-09T03:21:49.030Z,0.00
2023-04-09T03:22:49.032Z,0.00
2023-04-09T03:23:49.001Z,0.00
2023-04-09T03:24:49.001Z,0.00
2023-04-09T03:25:48.990Z,0.00
2023-04-09T03:26:48.971Z,0.00
2023-04-09T03:27:48.986Z,0.00
2023-04-09T03:28:48.984Z,0.00
2023-04-09T03:29:48.939Z,0.00
2023-04-09T03:30:48.956Z,0.00
2023-04-09T03:31:48.919Z,0.00
2023-04-09T03:32:48.928Z,0.00
2023-04-09T03:33:48.919Z,0.00
2023-04-09T03:34:48.898Z,0.00
2023-04-09T03:35:48.913Z,0.00
2023-04-09T03:36:48.915Z,0.00
2023-04-09T03:37:48.853Z,0.00
2023-04-09T03:38:48.867Z,0.00
2023-04-09T03:39:50.204Z,0.00
2023-04-09T03:40:48.840Z,0.00
2023-04-09T03:41:48.808Z,0.00
2023-04-09T03:42:48.789Z,0.00
2023-04-09T03:43:48.806Z,0.00
2023-04-09T03:44:48.774Z,0.00
2023-04-09T03:45:48.766Z,0.00
2023-04-09T03:46:48.820Z,0.00
2023-04-09T03:47:48.794Z,0.00
2023-04-09T03:48:48.752Z,0.00
2023-04-09T03:49:48.733Z,0.00
2023-04-09T03:50:48.703Z,0.00
2023-04-09T03:51:48.693Z,0.00
2023-04-09T03:52:48.700Z,0.00
2023-04-09T03:53:48.691Z,0.00
2023-04-09T03:54:48.667Z,0.00
2023-04-09T03:55:48.665Z,0.00
2023-04-09T03:56:48.642Z,0.00
2023-04-09T03:57:48.638Z,0.00
2023-04-09T03:58:48.607Z,0.00
2023-04-09T03:59:48.617Z,0.00
2023-04-09T04:00:48.596Z,0.00
2023-04-09T04:01:48.714Z,0.00
2023-04-09T04:02:48.749Z,0.00
2023-04-09T04:03:48.783Z,4.00
2023-04-09T04:04:48.633Z,4.00
2023-04-09T04:05:48.529Z,0.00
2023-04-09T04:06:48.527Z,0.00
2023-04-09T04:07:48.509Z,4.00
2023-04-09T04:08:48.511Z,0.00
2023-04-09T04:09:48.485Z,4.00
2023-04-09T04:10:48.494Z,4.00
2023-04-09T04:11:48.466Z,4.00
2023-04-09T04:12:48.483Z,8.00
2023-04-09T04:13:48.446Z,4.00
2023-04-09T04:14:48.454Z,8.00
2023-04-09T04:15:48.420Z,8.00
2023-04-09T04:16:48.420Z,8.00
2023-04-09T04:17:48.421Z,8.00
2023-04-09T04:18:48.399Z,8.00
2023-04-09T04:19:48.382Z,8.00
2023-04-09T04:20:48.380Z,12.00
2023-04-09T04:21:48.377Z,12.00
2023-04-09T04:22:48.338Z,16.00
2023-04-09T04:23:48.356Z,16.00
2023-04-09T04:24:48.331Z,16.00
2023-04-09T04:25:48.325Z,20.00
2023-04-09T04:26:48.289Z,20.00
2023-04-09T04:27:48.288Z,24.00
2023-04-09T04:28:48.294Z,28.00
2023-04-09T04:29:48.271Z,28.00
2023-04-09T04:30:48.245Z,32.00
2023-04-09T04:31:48.284Z,32.00
2023-04-09T04:32:48.291Z,36.00
2023-04-09T04:33:48.264Z,36.00
2023-04-09T04:34:48.207Z,40.00
2023-04-09T04:35:48.250Z,44.00
2023-04-09T04:36:48.178Z,44.00
2023-04-09T04:37:48.188Z,52.00
2023-04-09T04:38:48.174Z,52.00
2023-04-09T04:39:48.149Z,52.00
2023-04-09T04:40:48.155Z,56.00
2023-04-09T04:41:48.137Z,56.00
2023-04-09T04:42:48.134Z,60.00
2023-04-09T04:43:48.106Z,68.00
2023-04-09T04:44:48.087Z,68.00
2023-04-09T04:45:48.122Z,68.00
2023-04-09T04:46:48.781Z,72.00
2023-04-09T04:47:48.159Z,76.00
2023-04-09T04:48:48.042Z,80.00
2023-04-09T04:49:48.039Z,80.00
2023-04-09T04:50:48.023Z,84.00
2023-04-09T04:51:48.042Z,88.00
2023-04-09T04:52:48.029Z,92.00
2023-04-09T04:53:47.991Z,96.00
2023-04-09T04:54:48.003Z,100.00
2023-04-09T04:55:47.991Z,104.00
2023-04-09T04:56:47.998Z,108.00
2023-04-09T04:57:47.951Z,116.00
2023-04-09T04:58:47.941Z,124.00
2023-04-09T04:59:47.922Z,124.00
2023-04-09T05:00:47.976Z,136.00
2023-04-09T05:01:47.913Z,140.00
2023-04-09T05:02:48.105Z,144.00
2023-04-09T05:03:47.935Z,152.00
2023-04-09T05:04:47.865Z,160.00
2023-04-09T05:05:47.874Z,172.00
2023-04-09T05:06:47.852Z,180.00
2023-04-09T05:07:47.835Z,188.00
2023-04-09T05:08:47.834Z,200.00
2023-04-09T05:09:47.816Z,208.00
2023-04-09T05:10:47.797Z,224.00
2023-04-09T05:11:47.792Z,228.00
2023-04-09T05:12:47.809Z,240.00
2023-04-09T05:13:47.764Z,248.00
2023-04-09T05:14:47.765Z,260.00
2023-04-09T05:15:47.749Z,264.00
2023-04-09T05:16:47.944Z,276.00
2023-04-09T05:17:47.836Z,284.00
2023-04-09T05:18:47.714Z,300.00
2023-04-09T05:19:47.697Z,308.00
2023-04-09T05:20:47.683Z,320.00
2023-04-09T05:21:47.686Z,332.00
2023-04-09T05:22:47.699Z,344.00
2023-04-09T05:23:47.694Z,364.00
2023-04-09T05:24:47.656Z,380.00
2023-04-09T05:25:47.632Z,400.00
2023-04-09T05:26:47.627Z,424.00
2023-04-09T05:27:47.627Z,448.00
2023-04-09T05:28:47.613Z,476.00
2023-04-09T05:29:47.584Z,496.00
2023-04-09T05:30:47.659Z,516.00
2023-04-09T05:31:47.572Z,532.00
2023-04-09T05:32:47.606Z,548.00
2023-04-09T05:33:47.583Z,564.00
2023-04-09T05:34:47.529Z,572.00
2023-04-09T05:35:47.553Z,588.00
2023-04-09T05:36:47.506Z,596.00
2023-04-09T05:37:48.279Z,612.00
2023-04-09T05:38:47.496Z,628.00
2023-04-09T05:39:47.496Z,644.00
2023-04-09T05:40:47.460Z,660.00
2023-04-09T05:41:47.449Z,676.00
2023-04-09T05:42:47.437Z,696.00
2023-04-09T05:43:47.454Z,716.00
2023-04-09T05:44:47.433Z,732.00
2023-04-09T05:45:47.452Z,752.00
2023-04-09T05:46:47.394Z,776.00
2023-04-09T05:47:47.414Z,800.00
2023-04-09T05:48:47.390Z,832.00
2023-04-09T05:49:47.363Z,884.00
2023-04-09T05:50:54.384Z,972.00
2023-04-09T05:51:48.406Z,1068.00
2023-04-09T05:52:47.336Z,1176.00
2023-04-09T05:53:47.314Z,1240.00
2023-04-09T05:54:47.328Z,1320.00
2023-04-09T05:55:47.312Z,1388.00
2023-04-09T05:56:47.314Z,1388.00
2023-04-09T05:57:47.290Z,1376.00
2023-04-09T05:58:47.263Z,1360.00
2023-04-09T05:59:47.271Z,1360.00
2023-04-09T06:00:47.264Z,1416.00
2023-04-09T06:01:47.242Z,1456.00
2023-04-09T06:02:47.346Z,1468.00
2023-04-09T06:03:47.263Z,1512.00
2023-04-09T06:04:47.216Z,1496.00
2023-04-09T06:05:47.200Z,1428.00
2023-04-09T06:06:47.186Z,1400.00
2023-04-09T06:07:47.186Z,1404.00
2023-04-09T06:08:47.153Z,1380.00
2023-04-09T06:09:47.159Z,1372.00
2023-04-09T06:10:47.144Z,1388.00
2023-04-09T06:11:47.109Z,1376.00
2023-04-09T06:12:47.105Z,1328.00
2023-04-09T06:13:47.102Z,1268.00
2023-04-09T06:14:47.086Z,1232.00
2023-04-09T06:15:47.149Z,1232.00
2023-04-09T06:16:47.098Z,1200.00
2023-04-09T06:17:47.065Z,1152.00
2023-04-09T06:18:47.034Z,1124.00
2023-04-09T06:19:47.020Z,1100.00
2023-04-09T06:20:47.036Z,1068.00
2023-04-09T06:21:47.018Z,1056.00
2023-04-09T06:22:46.988Z,1056.00
2023-04-09T06:23:46.982Z,1072.00
2023-04-09T06:24:46.988Z,1096.00
2023-04-09T06:25:46.969Z,1116.00
2023-04-09T06:26:46.979Z,1152.00
2023-04-09T06:27:46.933Z,1208.00
2023-04-09T06:28:47.021Z,1264.00
2023-04-09T06:29:46.912Z,1316.00
2023-04-09T06:30:46.928Z,1348.00
2023-04-09T06:31:46.910Z,1424.00
2023-04-09T06:32:53.818Z,1504.00
2023-04-09T06:33:47.894Z,1488.00
2023-04-09T06:34:46.869Z,1464.00
2023-04-09T06:35:46.862Z,1584.00
2023-04-09T06:36:46.843Z,1784.00
2023-04-09T06:37:46.839Z,2084.00
2023-04-09T06:38:46.811Z,2516.00
2023-04-09T06:39:58.150Z,3140.00
2023-04-09T06:40:47.788Z,4424.00
2023-04-09T06:41:46.791Z,13612.00
2023-04-09T06:42:46.787Z,29568.00
2023-04-09T06:43:46.914Z,13960.00
2023-04-09T06:44:46.734Z,3884.00
2023-04-09T06:45:46.722Z,3572.00
2023-04-09T06:46:46.760Z,4880.00
2023-04-09T06:47:46.740Z,10816.00
2023-04-09T06:48:46.710Z,5648.00
2023-04-09T06:49:46.703Z,5532.00
2023-04-09T06:50:46.670Z,4832.00
2023-04-09T06:51:46.668Z,6204.00
2023-04-09T06:52:46.667Z,4432.00
2023-04-09T06:53:47.522Z,2972.00
2023-04-09T06:54:46.630Z,2412.00
2023-04-09T06:55:46.623Z,2216.00
2023-04-09T06:56:46.790Z,2196.00
2023-04-09T06:57:46.620Z,2400.00
2023-04-09T06:58:46.579Z,2416.00
2023-04-09T06:59:46.610Z,2512.00
2023-04-09T07:00:46.558Z,2784.00
2023-04-09T07:01:46.603Z,3288.00
2023-04-09T07:02:46.729Z,3324.00
2023-04-09T07:03:46.626Z,3552.00
2023-04-09T07:04:46.736Z,3432.00
2023-04-09T07:05:46.517Z,3296.00
2023-04-09T07:06:46.503Z,3268.00
2023-04-09T07:07:46.477Z,3836.00
2023-04-09T07:08:46.467Z,3004.00
2023-04-09T07:09:46.473Z,3060.00
2023-04-09T07:10:46.446Z,3260.00
2023-04-09T07:11:46.433Z,3196.00
2023-04-09T07:12:46.422Z,3028.00
2023-04-09T07:13:46.409Z,3408.00
2023-04-09T07:14:46.417Z,3844.00
2023-04-09T07:15:46.489Z,3764.00
2023-04-09T07:16:46.382Z,4012.00
2023-04-09T07:17:46.384Z,3976.00
2023-04-09T07:18:46.362Z,3844.00
2023-04-09T07:19:46.337Z,3676.00
2023-04-09T07:20:46.346Z,3672.00
2023-04-09T07:21:46.341Z,3712.00
2023-04-09T07:22:46.316Z,3776.00
2023-04-09T07:23:46.304Z,3820.00
2023-04-09T07:24:46.298Z,3852.00
2023-04-09T07:25:46.328Z,3904.00
2023-04-09T07:26:46.343Z,3964.00
2023-04-09T07:27:46.246Z,3928.00
2023-04-09T07:28:46.262Z,3732.00
2023-04-09T07:29:46.225Z,3500.00
2023-04-09T07:30:46.237Z,3432.00
2023-04-09T07:31:46.247Z,3364.00
2023-04-09T07:32:46.256Z,3264.00
2023-04-09T07:33:46.220Z,3124.00
2023-04-09T07:34:46.178Z,3060.00
2023-04-09T07:35:46.189Z,3028.00
2023-04-09T07:36:46.193Z,3012.00
2023-04-09T07:37:46.131Z,2996.00
2023-04-09T07:38:46.118Z,2972.00
2023-04-09T07:39:46.116Z,2932.00
2023-04-09T07:40:46.107Z,2896.00
2023-04-09T07:41:46.334Z,2848.00
2023-04-09T07:42:46.080Z,2816.00
2023-04-09T07:43:46.093Z,2792.00
2023-04-09T07:44:46.064Z,2772.00
2023-04-09T07:45:46.041Z,2744.00
2023-04-09T07:46:46.082Z,2692.00
2023-04-09T07:47:46.063Z,2624.00
2023-04-09T07:48:47.840Z,2580.00
2023-04-09T07:49:45.999Z,2564.00
2023-04-09T07:50:45.988Z,2576.00
2023-04-09T07:51:45.997Z,2588.00
2023-04-09T07:52:45.986Z,2588.00
2023-04-09T07:53:45.949Z,2564.00
2023-04-09T07:54:45.952Z,2544.00
2023-04-09T07:55:45.935Z,2536.00
2023-04-09T07:56:45.972Z,2544.00
2023-04-09T07:57:45.926Z,2548.00
2023-04-09T07:58:45.903Z,2560.00
2023-04-09T07:59:45.906Z,2588.00
2023-04-09T08:00:45.880Z,2600.00
2023-04-09T08:01:45.957Z,2612.00
2023-04-09T08:02:46.028Z,2624.00
2023-04-09T08:03:46.065Z,2632.00
2023-04-09T08:04:45.966Z,2628.00
2023-04-09T08:05:45.816Z,2616.00
2023-04-09T08:06:45.862Z,2608.00
2023-04-09T08:07:45.818Z,2608.00
2023-04-09T08:08:45.813Z,2624.00
2023-04-09T08:09:45.771Z,2644.00
2023-04-09T08:10:45.779Z,2612.00
2023-04-09T08:11:45.744Z,2552.00
2023-04-09T08:12:45.744Z,2524.00
2023-04-09T08:13:45.722Z,2504.00
2023-04-09T08:14:45.711Z,2468.00
2023-04-09T08:15:45.700Z,2544.00
2023-04-09T08:16:45.927Z,2548.00
2023-04-09T08:17:45.819Z,2604.00
2023-04-09T08:18:45.865Z,2668.00
2023-04-09T08:19:45.667Z,2740.00
2023-04-09T08:20:45.797Z,2796.00
2023-04-09T08:21:45.664Z,2844.00
2023-04-09T08:22:45.622Z,2784.00
2023-04-09T08:23:45.627Z,2792.00
2023-04-09T08:24:45.626Z,2772.00
2023-04-09T08:25:45.598Z,2732.00
2023-04-09T08:26:45.603Z,2728.00
2023-04-09T08:27:45.565Z,2784.00
2023-04-09T08:28:45.586Z,2864.00
2023-04-09T08:29:45.570Z,2900.00
2023-04-09T08:30:46.887Z,2876.00
2023-04-09T08:31:45.593Z,2848.00
2023-04-09T08:32:45.602Z,2836.00
2023-04-09T08:33:45.490Z,2900.00
2023-04-09T08:34:45.488Z,2968.00
2023-04-09T08:35:45.488Z,3004.00
2023-04-09T08:36:45.535Z,3024.00
2023-04-09T08:37:45.449Z,3016.00
2023-04-09T08:38:45.435Z,2952.00
2023-04-09T08:39:46.387Z,2852.00
2023-04-09T08:40:45.429Z,2788.00
2023-04-09T08:41:45.422Z,2736.00
2023-04-09T08:42:45.413Z,2676.00
2023-04-09T08:43:56.936Z,2620.00
2023-04-09T08:44:46.371Z,2556.00
2023-04-09T08:45:45.401Z,2464.00
2023-04-09T08:46:45.365Z,2412.00
2023-04-09T08:47:45.370Z,2360.00
2023-04-09T08:48:45.380Z,2320.00
2023-04-09T08:49:45.307Z,2296.00
2023-04-09T08:50:45.300Z,2276.00
2023-04-09T08:51:45.311Z,2264.00
2023-04-09T08:52:45.278Z,2260.00
2023-04-09T08:53:45.295Z,2256.00
2023-04-09T08:54:45.278Z,2256.00
2023-04-09T08:55:45.235Z,2268.00
2023-04-09T08:56:45.269Z,2276.00
2023-04-09T08:57:45.273Z,2292.00
2023-04-09T08:58:45.209Z,2316.00
2023-04-09T08:59:45.207Z,2348.00
2023-04-09T09:00:45.182Z,2364.00
2023-04-09T09:01:45.256Z,2376.00
2023-04-09T09:02:45.217Z,2384.00
2023-04-09T09:03:45.266Z,2380.00
2023-04-09T09:04:45.160Z,2360.00
2023-04-09T09:05:45.133Z,2312.00
2023-04-09T09:06:45.133Z,2288.00
2023-04-09T09:07:45.096Z,2284.00
2023-04-09T09:08:45.102Z,2296.00
2023-04-09T09:09:45.096Z,2348.00
2023-04-09T09:10:45.065Z,2400.00
2023-04-09T09:11:45.063Z,2436.00
2023-04-09T09:12:45.086Z,2424.00
2023-04-09T09:13:53.990Z,2404.00
2023-04-09T09:14:45.086Z,2384.00
2023-04-09T09:15:45.062Z,2368.00
2023-04-09T09:16:45.128Z,2360.00
2023-04-09T09:17:45.013Z,2376.00
2023-04-09T09:18:45.027Z,2400.00
2023-04-09T09:19:44.960Z,2420.00
2023-04-09T09:20:44.971Z,2436.00
2023-04-09T09:21:44.962Z,2432.00
2023-04-09T09:22:44.951Z,2404.00
2023-04-09T09:23:45.016Z,2380.00
2023-04-09T09:24:44.903Z,2344.00
2023-04-09T09:25:44.895Z,2316.00
2023-04-09T09:26:44.971Z,2296.00
2023-04-09T09:27:52.586Z,2284.00
2023-04-09T09:28:44.962Z,2276.00
2023-04-09T09:29:44.912Z,2272.00
2023-04-09T09:30:45.610Z,2268.00
2023-04-09T09:31:44.844Z,2280.00
2023-04-09T09:32:44.875Z,2276.00
2023-04-09T09:33:44.885Z,2268.00
2023-04-09T09:34:44.908Z,2272.00
2023-04-09T09:35:44.980Z,2280.00
2023-04-09T09:36:44.968Z,2284.00
2023-04-09T09:37:44.772Z,2292.00
2023-04-09T09:38:44.746Z,2304.00
2023-04-09T09:39:44.787Z,2344.00
2023-04-09T09:40:44.757Z,2384.00
2023-04-09T09:41:44.711Z,2416.00
2023-04-09T09:42:44.735Z,2496.00
2023-04-09T09:43:44.741Z,2548.00
2023-04-09T09:44:44.674Z,2600.00
2023-04-09T09:45:44.826Z,2660.00
2023-04-09T09:46:44.658Z,2696.00
2023-04-09T09:47:44.681Z,2784.00
2023-04-09T09:48:44.700Z,2896.00
2023-04-09T09:49:44.620Z,2912.00
2023-04-09T09:50:44.634Z,2888.00
2023-04-09T09:51:44.616Z,2880.00
2023-04-09T09:52:56.040Z,2820.00
2023-04-09T09:53:44.655Z,2812.00
2023-04-09T09:54:44.595Z,2884.00
2023-04-09T09:55:44.724Z,3012.00
2023-04-09T09:56:44.583Z,3096.00
2023-04-09T09:57:44.527Z,3044.00
2023-04-09T09:58:44.531Z,2964.00
2023-04-09T09:59:44.622Z,2960.00
2023-04-09T10:00:44.489Z,2828.00
2023-04-09T10:01:44.595Z,2724.00
2023-04-09T10:02:44.551Z,2716.00
2023-04-09T10:03:45.701Z,2768.00
2023-04-09T10:04:44.528Z,2752.00
2023-04-09T10:05:44.480Z,2748.00
2023-04-09T10:06:44.492Z,2764.00
2023-04-09T10:07:44.468Z,2704.00
2023-04-09T10:08:44.470Z,2696.00
2023-04-09T10:09:44.427Z,2780.00
2023-04-09T10:10:44.455Z,2892.00
2023-04-09T10:11:44.371Z,3008.00
2023-04-09T10:12:44.382Z,3124.00
2023-04-09T10:13:44.344Z,3164.00
2023-04-09T10:14:44.327Z,3148.00
2023-04-09T10:15:44.426Z,3116.00
2023-04-09T10:16:44.338Z,2496.00
2023-04-09T10:17:44.348Z,2648.00
2023-04-09T10:18:44.307Z,3420.00
2023-04-09T10:19:44.288Z,3400.00
2023-04-09T10:20:44.284Z,3376.00
2023-04-09T10:21:44.269Z,3316.00
2023-04-09T10:22:44.255Z,3252.00
2023-04-09T10:23:44.230Z,3220.00
2023-04-09T10:24:44.221Z,3208.00
2023-04-09T10:25:44.221Z,3328.00
2023-04-09T10:26:44.191Z,3372.00
2023-04-09T10:27:44.176Z,3404.00
2023-04-09T10:28:44.177Z,3484.00
2023-04-09T10:29:44.156Z,3388.00
2023-04-09T10:30:44.164Z,3296.00
2023-04-09T10:31:44.150Z,3212.00
2023-04-09T10:32:44.195Z,3052.00
2023-04-09T10:33:44.117Z,2908.00
2023-04-09T10:34:44.161Z,2768.00
2023-04-09T10:35:44.122Z,2724.00
2023-04-09T10:36:44.073Z,2736.00
2023-04-09T10:37:44.061Z,2760.00
2023-04-09T10:38:44.052Z,2684.00
2023-04-09T10:39:44.109Z,2680.00
2023-04-09T10:40:44.050Z,2704.00
2023-04-09T10:41:44.038Z,2692.00
2023-04-09T10:42:44.009Z,2624.00
2023-04-09T10:43:43.991Z,2536.00
2023-04-09T10:44:44.009Z,2528.00
2023-04-09T10:45:43.972Z,2228.00
2023-04-09T10:46:44.959Z,2568.00
2023-04-09T10:47:44.038Z,2144.00
2023-04-09T10:48:43.934Z,2748.00
2023-04-09T10:49:43.952Z,2720.00
2023-04-09T10:50:45.854Z,2840.00
2023-04-09T10:51:43.933Z,2904.00
2023-04-09T10:52:43.892Z,2944.00
2023-04-09T10:53:47.358Z,2948.00
2023-04-09T10:54:43.970Z,2948.00
2023-04-09T10:55:43.877Z,2880.00
2023-04-09T10:56:43.874Z,2700.00
2023-04-09T10:57:43.860Z,2056.00
2023-04-09T10:58:43.834Z,2880.00
2023-04-09T10:59:43.830Z,2844.00
2023-04-09T11:00:43.813Z,2788.00
2023-04-09T11:01:43.909Z,2748.00
2023-04-09T11:02:43.936Z,2724.00
2023-04-09T11:03:43.938Z,2708.00
2023-04-09T11:04:43.788Z,2700.00
2023-04-09T11:05:43.771Z,2776.00
2023-04-09T11:06:43.743Z,2764.00
2023-04-09T11:07:43.781Z,2712.00
2023-04-09T11:08:43.734Z,2772.00
2023-04-09T11:09:43.709Z,2316.00
2023-04-09T11:10:43.710Z,2828.00
2023-04-09T11:11:43.694Z,2888.00
2023-04-09T11:12:43.667Z,2844.00
2023-04-09T11:13:43.677Z,2884.00
2023-04-09T11:14:43.644Z,2868.00
2023-04-09T11:15:43.700Z,2880.00
2023-04-09T11:16:43.706Z,2888.00
2023-04-09T11:17:43.683Z,2924.00
2023-04-09T11:18:43.594Z,2948.00
2023-04-09T11:19:43.616Z,3040.00
2023-04-09T11:20:43.606Z,3076.00
2023-04-09T11:21:43.609Z,3068.00
2023-04-09T11:22:43.562Z,3108.00
2023-04-09T11:23:43.540Z,3216.00
2023-04-09T11:24:43.559Z,3320.00
2023-04-09T11:25:43.535Z,3328.00
2023-04-09T11:26:43.533Z,3276.00
2023-04-09T11:27:44.260Z,3236.00
2023-04-09T11:28:43.525Z,3280.00
2023-04-09T11:29:43.513Z,3392.00
2023-04-09T11:30:43.459Z,3452.00
2023-04-09T11:31:43.519Z,3420.00
2023-04-09T11:32:43.519Z,3432.00
2023-04-09T11:33:43.481Z,3364.00
2023-04-09T11:34:43.413Z,3064.00
2023-04-09T11:35:43.484Z,3336.00
2023-04-09T11:36:43.969Z,3360.00
2023-04-09T11:37:43.397Z,3448.00
2023-04-09T11:38:43.369Z,3464.00
2023-04-09T11:39:43.402Z,3340.00
2023-04-09T11:40:43.353Z,2472.00
2023-04-09T11:41:43.445Z,2332.00
2023-04-09T11:42:43.322Z,3376.00
2023-04-09T11:43:43.349Z,2624.00
2023-04-09T11:44:43.336Z,2364.00
2023-04-09T11:45:43.295Z,2500.00
2023-04-09T11:46:43.321Z,2992.00
2023-04-09T11:47:43.282Z,3808.00
2023-04-09T11:48:43.258Z,4236.00
2023-04-09T11:49:43.271Z,3800.00
2023-04-09T11:50:43.260Z,3216.00
2023-04-09T11:51:43.262Z,2700.00
2023-04-09T11:52:43.214Z,2876.00
2023-04-09T11:53:43.223Z,2756.00
2023-04-09T11:54:43.201Z,3948.00
2023-04-09T11:55:43.229Z,4116.00
2023-04-09T11:56:43.171Z,4132.00
2023-04-09T11:57:43.182Z,4100.00
2023-04-09T11:58:43.165Z,4092.00
2023-04-09T11:59:43.134Z,4108.00
2023-04-09T12:00:43.123Z,4120.00
2023-04-09T12:01:43.203Z,4180.00
2023-04-09T12:02:43.285Z,4276.00
2023-04-09T12:03:43.326Z,4336.00
2023-04-09T12:04:43.177Z,4096.00
2023-04-09T12:05:45.027Z,4044.00
2023-04-09T12:06:44.053Z,4332.00
2023-04-09T12:07:51.573Z,4248.00
2023-04-09T12:08:44.051Z,4236.00
2023-04-09T12:09:43.021Z,4180.00
2023-04-09T12:10:43.074Z,4156.00
2023-04-09T12:11:43.005Z,4072.00
2023-04-09T12:12:42.982Z,4128.00
2023-04-09T12:13:43.203Z,4188.00
2023-04-09T12:14:43.015Z,4272.00
2023-04-09T12:15:42.958Z,4312.00
2023-04-09T12:16:43.085Z,4360.00
2023-04-09T12:17:42.993Z,4252.00
2023-04-09T12:18:42.914Z,4420.00
2023-04-09T12:19:42.935Z,4492.00
2023-04-09T12:20:42.922Z,4568.00
2023-04-09T12:21:42.919Z,4228.00
2023-04-09T12:22:42.871Z,3984.00
2023-04-09T12:23:42.879Z,4292.00
2023-04-09T12:24:42.862Z,3788.00
2023-04-09T12:25:42.867Z,4116.00
2023-04-09T12:26:42.845Z,4248.00
2023-04-09T12:27:42.839Z,4352.00
2023-04-09T12:28:42.834Z,4556.00
2023-04-09T12:29:42.814Z,4176.00
2023-04-09T12:30:42.805Z,4300.00
2023-04-09T12:31:42.824Z,4800.00
2023-04-09T12:32:42.801Z,4456.00
2023-04-09T12:33:42.780Z,5016.00